sensor_id;sensor_type;location;lat;lon;timestamp;temperature;humidity
68189;DHT22;66299;47.514;19.218;2023-02-23T00:02:20;6.29;79.96
68189;DHT22;66299;47.514;19.218;2023-02-23T00:04:49;6.22;80.07
68189;DHT22;66299;47.514;19.218;2023-02-23T00:07:21;6.24;80.19
68189;DHT22;66299;47.514;19.218;2023-02-23T00:09:52;6.32;79.94
68189;DHT22;66299;47.514;19.218;2023-02-23T00:12:24;6.32;79.94
68189;DHT22;66299;47.514;19.218;2023-02-23T00:14:53;6.34;79.40
68189;DHT22;66299;47.514;19.218;2023-02-23T00:17:24;6.31;79.59
68189;DHT22;66299;47.514;19.218;2023-02-23T00:19:55;6.32;79.66
68189;DHT22;66299;47.514;19.218;2023-02-23T00:22:28;6.34;79.97
68189;DHT22;66299;47.514;19.218;2023-02-23T00:25:00;6.34;80.14
68189;DHT22;66299;47.514;19.218;2023-02-23T00:27:35;6.46;79.69
68189;DHT22;66299;47.514;19.218;2023-02-23T00:30:12;6.35;79.50
68189;DHT22;66299;47.514;19.218;2023-02-23T00:32:49;6.39;79.42
68189;DHT22;66299;47.514;19.218;2023-02-23T00:35:20;6.36;79.93
68189;DHT22;66299;47.514;19.218;2023-02-23T00:37:53;6.38;79.80
68189;DHT22;66299;47.514;19.218;2023-02-23T00:40:22;6.36;79.86
68189;DHT22;66299;47.514;19.218;2023-02-23T00:42:53;6.39;79.31
68189;DHT22;66299;47.514;19.218;2023-02-23T00:45:23;6.45;79.71
68189;DHT22;66299;47.514;19.218;2023-02-23T00:48:00;6.42;79.46
68189;DHT22;66299;47.514;19.218;2023-02-23T00:50:32;6.46;79.54
68189;DHT22;66299;47.514;19.218;2023-02-23T00:53:03;6.39;79.50
68189;DHT22;66299;47.514;19.218;2023-02-23T00:55:34;6.42;79.41
68189;DHT22;66299;47.514;19.218;2023-02-23T00:58:02;6.44;79.08
68189;DHT22;66299;47.514;19.218;2023-02-23T01:00:32;6.39;79.26
68189;DHT22;66299;47.514;19.218;2023-02-23T01:03:10;6.39;79.42
68189;DHT22;66299;47.514;19.218;2023-02-23T01:05:42;6.49;78.94
68189;DHT22;66299;47.514;19.218;2023-02-23T01:08:11;6.44;78.82
68189;DHT22;66299;47.514;19.218;2023-02-23T01:10:44;6.45;78.67
68189;DHT22;66299;47.514;19.218;2023-02-23T01:13:21;6.46;78.52
68189;DHT22;66299;47.514;19.218;2023-02-23T01:15:51;6.42;78.84
68189;DHT22;66299;47.514;19.218;2023-02-23T01:18:22;6.45;78.61
68189;DHT22;66299;47.514;19.218;2023-02-23T01:20:54;6.44;78.56
68189;DHT22;66299;47.514;19.218;2023-02-23T01:23:25;6.48;78.46
68189;DHT22;66299;47.514;19.218;2023-02-23T01:25:56;6.50;78.11
68189;DHT22;66299;47.514;19.218;2023-02-23T01:28:27;6.49;78.55
68189;DHT22;66299;47.514;19.218;2023-02-23T01:30:57;6.53;78.48
68189;DHT22;66299;47.514;19.218;2023-02-23T01:33:31;6.53;78.25
68189;DHT22;66299;47.514;19.218;2023-02-23T01:36:01;6.50;78.61
68189;DHT22;66299;47.514;19.218;2023-02-23T01:38:33;6.52;78.79
68189;DHT22;66299;47.514;19.218;2023-02-23T01:41:02;6.50;78.55
68189;DHT22;66299;47.514;19.218;2023-02-23T01:43:32;6.53;78.45
68189;DHT22;66299;47.514;19.218;2023-02-23T01:46:03;6.55;78.71
68189;DHT22;66299;47.514;19.218;2023-02-23T01:48:39;6.52;78.69
68189;DHT22;66299;47.514;19.218;2023-02-23T01:51:10;6.52;78.43
68189;DHT22;66299;47.514;19.218;2023-02-23T01:53:42;6.53;78.56
68189;DHT22;66299;47.514;19.218;2023-02-23T01:56:19;6.45;78.58
68189;DHT22;66299;47.514;19.218;2023-02-23T01:58:50;6.48;78.04
68189;DHT22;66299;47.514;19.218;2023-02-23T02:01:22;6.46;78.34
68189;DHT22;66299;47.514;19.218;2023-02-23T02:03:58;6.46;78.26
68189;DHT22;66299;47.514;19.218;2023-02-23T02:06:30;6.46;78.44
68189;DHT22;66299;47.514;19.218;2023-02-23T02:09:07;6.45;78.77
68189;DHT22;66299;47.514;19.218;2023-02-23T02:11:38;6.46;78.53
68189;DHT22;66299;47.514;19.218;2023-02-23T02:14:13;6.39;78.96
68189;DHT22;66299;47.514;19.218;2023-02-23T02:17:05;6.35;78.82
68189;DHT22;66299;47.514;19.218;2023-02-23T02:26:17;6.34;78.83
68189;DHT22;66299;47.514;19.218;2023-02-23T02:29:11;6.29;78.28
68189;DHT22;66299;47.514;19.218;2023-02-23T02:35:23;6.34;78.19
68189;DHT22;66299;47.514;19.218;2023-02-23T02:38:15;6.29;78.32
68189;DHT22;66299;47.514;19.218;2023-02-23T02:40:53;6.34;79.04
68189;DHT22;66299;47.514;19.218;2023-02-23T02:43:34;6.28;78.98
68189;DHT22;66299;47.514;19.218;2023-02-23T02:46:12;6.25;78.57
68189;DHT22;66299;47.514;19.218;2023-02-23T02:48:47;6.24;78.91
68189;DHT22;66299;47.514;19.218;2023-02-23T02:51:23;6.22;78.97
68189;DHT22;66299;47.514;19.218;2023-02-23T02:54:00;6.22;78.79
68189;DHT22;66299;47.514;19.218;2023-02-23T02:56:37;6.22;78.46
68189;DHT22;66299;47.514;19.218;2023-02-23T02:59:13;6.22;78.75
68189;DHT22;66299;47.514;19.218;2023-02-23T03:02:01;6.21;79.11
68189;DHT22;66299;47.514;19.218;2023-02-23T03:04:49;6.20;79.19
68189;DHT22;66299;47.514;19.218;2023-02-23T03:07:44;6.21;79.33
68189;DHT22;66299;47.514;19.218;2023-02-23T03:10:43;6.14;78.91
68189;DHT22;66299;47.514;19.218;2023-02-23T03:13:40;6.16;79.02
68189;DHT22;66299;47.514;19.218;2023-02-23T03:16:31;6.16;78.88
68189;DHT22;66299;47.514;19.218;2023-02-23T03:19:28;6.17;79.51
68189;DHT22;66299;47.514;19.218;2023-02-23T03:22:19;6.11;79.47
68189;DHT22;66299;47.514;19.218;2023-02-23T03:25:14;6.11;79.52
68189;DHT22;66299;47.514;19.218;2023-02-23T03:28:09;6.07;78.93
68189;DHT22;66299;47.514;19.218;2023-02-23T03:31:07;6.14;79.17
68189;DHT22;66299;47.514;19.218;2023-02-23T03:34:00;6.08;79.27
68189;DHT22;66299;47.514;19.218;2023-02-23T03:36:51;6.10;79.61
68189;DHT22;66299;47.514;19.218;2023-02-23T03:39:46;6.06;79.35
68189;DHT22;66299;47.514;19.218;2023-02-23T03:42:39;6.00;79.58
68189;DHT22;66299;47.514;19.218;2023-02-23T03:45:29;5.94;79.42
68189;DHT22;66299;47.514;19.218;2023-02-23T03:48:18;6.07;79.55
68189;DHT22;66299;47.514;19.218;2023-02-23T03:51:06;5.98;79.59
68189;DHT22;66299;47.514;19.218;2023-02-23T03:53:58;5.97;79.47
68189;DHT22;66299;47.514;19.218;2023-02-23T03:56:51;5.98;79.53
68189;DHT22;66299;47.514;19.218;2023-02-23T03:59:44;5.90;79.66
68189;DHT22;66299;47.514;19.218;2023-02-23T04:02:38;5.97;79.87
68189;DHT22;66299;47.514;19.218;2023-02-23T04:05:28;5.90;80.20
68189;DHT22;66299;47.514;19.218;2023-02-23T04:08:18;5.91;80.15
68189;DHT22;66299;47.514;19.218;2023-02-23T04:11:14;5.93;80.38
68189;DHT22;66299;47.514;19.218;2023-02-23T04:14:03;5.86;80.30
68189;DHT22;66299;47.514;19.218;2023-02-23T04:16:32;5.85;80.42
68189;DHT22;66299;47.514;19.218;2023-02-23T04:19:01;5.85;80.75
68189;DHT22;66299;47.514;19.218;2023-02-23T04:21:32;5.83;80.72
68189;DHT22;66299;47.514;19.218;2023-02-23T04:24:01;5.81;80.22
68189;DHT22;66299;47.514;19.218;2023-02-23T04:26:30;5.83;79.75
68189;DHT22;66299;47.514;19.218;2023-02-23T04:29:00;5.89;79.55
68189;DHT22;66299;47.514;19.218;2023-02-23T04:31:33;5.86;80.10
68189;DHT22;66299;47.514;19.218;2023-02-23T04:34:04;5.81;80.01
68189;DHT22;66299;47.514;19.218;2023-02-23T04:36:34;5.80;80.24
68189;DHT22;66299;47.514;19.218;2023-02-23T04:39:06;5.80;79.47
68189;DHT22;66299;47.514;19.218;2023-02-23T04:41:35;5.89;79.13
68189;DHT22;66299;47.514;19.218;2023-02-23T04:44:03;6.01;78.87
68189;DHT22;66299;47.514;19.218;2023-02-23T04:46:34;5.94;78.48
68189;DHT22;66299;47.514;19.218;2023-02-23T04:49:05;5.91;78.90
68189;DHT22;66299;47.514;19.218;2023-02-23T04:51:36;5.89;78.93
68189;DHT22;66299;47.514;19.218;2023-02-23T04:54:04;5.83;79.16
68189;DHT22;66299;47.514;19.218;2023-02-23T04:56:32;5.85;78.76
68189;DHT22;66299;47.514;19.218;2023-02-23T04:59:01;5.83;78.67
68189;DHT22;66299;47.514;19.218;2023-02-23T05:01:31;5.83;79.03
68189;DHT22;66299;47.514;19.218;2023-02-23T05:03:59;5.87;78.80
68189;DHT22;66299;47.514;19.218;2023-02-23T05:06:30;5.85;79.29
68189;DHT22;66299;47.514;19.218;2023-02-23T05:09:03;5.81;79.08
68189;DHT22;66299;47.514;19.218;2023-02-23T05:11:33;5.85;78.84
68189;DHT22;66299;47.514;19.218;2023-02-23T05:14:01;5.74;79.19
68189;DHT22;66299;47.514;19.218;2023-02-23T05:16:30;5.81;79.21
68189;DHT22;66299;47.514;19.218;2023-02-23T05:18:59;5.85;79.58
68189;DHT22;66299;47.514;19.218;2023-02-23T05:21:30;5.69;79.24
68189;DHT22;66299;47.514;19.218;2023-02-23T05:24:00;5.77;79.26
68189;DHT22;66299;47.514;19.218;2023-02-23T05:26:34;5.70;79.16
68189;DHT22;66299;47.514;19.218;2023-02-23T05:29:04;5.76;79.29
68189;DHT22;66299;47.514;19.218;2023-02-23T05:31:35;5.74;79.35
68189;DHT22;66299;47.514;19.218;2023-02-23T05:34:05;5.73;79.47
68189;DHT22;66299;47.514;19.218;2023-02-23T05:36:37;5.73;79.88
68189;DHT22;66299;47.514;19.218;2023-02-23T05:39:07;5.62;79.83
68189;DHT22;66299;47.514;19.218;2023-02-23T05:41:38;5.69;79.99
68189;DHT22;66299;47.514;19.218;2023-02-23T05:44:07;5.66;79.44
68189;DHT22;66299;47.514;19.218;2023-02-23T05:46:37;5.56;79.76
68189;DHT22;66299;47.514;19.218;2023-02-23T05:49:06;5.60;79.77
68189;DHT22;66299;47.514;19.218;2023-02-23T05:51:38;5.66;80.01
68189;DHT22;66299;47.514;19.218;2023-02-23T05:54:10;5.65;79.25
68189;DHT22;66299;47.514;19.218;2023-02-23T05:56:41;5.59;79.11
68189;DHT22;66299;47.514;19.218;2023-02-23T05:59:12;5.66;79.55
68189;DHT22;66299;47.514;19.218;2023-02-23T06:01:42;5.65;79.47
68189;DHT22;66299;47.514;19.218;2023-02-23T06:04:11;5.65;79.22
68189;DHT22;66299;47.514;19.218;2023-02-23T06:06:42;5.65;79.33
68189;DHT22;66299;47.514;19.218;2023-02-23T06:09:13;5.63;79.10
68189;DHT22;66299;47.514;19.218;2023-02-23T06:11:44;5.67;79.43
68189;DHT22;66299;47.514;19.218;2023-02-23T06:14:14;5.65;79.21
68189;DHT22;66299;47.514;19.218;2023-02-23T06:16:49;5.59;79.51
68189;DHT22;66299;47.514;19.218;2023-02-23T06:19:19;5.70;78.62
68189;DHT22;66299;47.514;19.218;2023-02-23T06:21:51;5.67;78.65
68189;DHT22;66299;47.514;19.218;2023-02-23T06:24:20;5.69;78.73
68189;DHT22;66299;47.514;19.218;2023-02-23T06:26:51;5.77;78.50
68189;DHT22;66299;47.514;19.218;2023-02-23T06:29:23;5.80;78.17
68189;DHT22;66299;47.514;19.218;2023-02-23T06:31:55;5.86;77.65
68189;DHT22;66299;47.514;19.218;2023-02-23T06:34:29;5.86;77.98
68189;DHT22;66299;47.514;19.218;2023-02-23T06:36:59;5.97;77.40
68189;DHT22;66299;47.514;19.218;2023-02-23T06:39:30;5.98;77.20
68189;DHT22;66299;47.514;19.218;2023-02-23T06:42:08;5.91;78.04
68189;DHT22;66299;47.514;19.218;2023-02-23T06:44:41;5.93;78.15
68189;DHT22;66299;47.514;19.218;2023-02-23T06:47:15;5.97;77.95
68189;DHT22;66299;47.514;19.218;2023-02-23T06:49:48;5.94;77.40
68189;DHT22;66299;47.514;19.218;2023-02-23T06:52:21;6.10;76.32
68189;DHT22;66299;47.514;19.218;2023-02-23T06:54:53;6.13;77.18
68189;DHT22;66299;47.514;19.218;2023-02-23T06:57:22;6.06;77.20
68189;DHT22;66299;47.514;19.218;2023-02-23T06:59:51;6.14;76.76
68189;DHT22;66299;47.514;19.218;2023-02-23T07:02:21;6.14;76.07
68189;DHT22;66299;47.514;19.218;2023-02-23T07:04:51;6.11;76.11
68189;DHT22;66299;47.514;19.218;2023-02-23T07:07:23;6.22;75.93
68189;DHT22;66299;47.514;19.218;2023-02-23T07:09:53;6.20;76.25
68189;DHT22;66299;47.514;19.218;2023-02-23T07:12:22;6.18;76.17
68189;DHT22;66299;47.514;19.218;2023-02-23T07:14:56;6.32;75.50
68189;DHT22;66299;47.514;19.218;2023-02-23T07:17:25;6.35;76.51
68189;DHT22;66299;47.514;19.218;2023-02-23T07:19:55;6.46;75.86
68189;DHT22;66299;47.514;19.218;2023-02-23T07:22:28;6.50;75.25
68189;DHT22;66299;47.514;19.218;2023-02-23T07:24:58;6.61;74.86
68189;DHT22;66299;47.514;19.218;2023-02-23T07:27:28;6.72;75.37
68189;DHT22;66299;47.514;19.218;2023-02-23T07:30:00;6.79;74.47
68189;DHT22;66299;47.514;19.218;2023-02-23T07:32:30;6.72;74.36
68189;DHT22;66299;47.514;19.218;2023-02-23T07:34:59;6.90;73.77
68189;DHT22;66299;47.514;19.218;2023-02-23T07:37:30;6.79;73.91
68189;DHT22;66299;47.514;19.218;2023-02-23T07:40:01;6.89;74.07
68189;DHT22;66299;47.514;19.218;2023-02-23T07:42:32;6.93;73.85
68189;DHT22;66299;47.514;19.218;2023-02-23T07:45:01;6.90;74.20
68189;DHT22;66299;47.514;19.218;2023-02-23T07:47:31;6.89;73.10
68189;DHT22;66299;47.514;19.218;2023-02-23T07:50:06;7.06;73.31
68189;DHT22;66299;47.514;19.218;2023-02-23T07:52:39;6.94;73.76
68189;DHT22;66299;47.514;19.218;2023-02-23T07:55:10;7.04;73.63
68189;DHT22;66299;47.514;19.218;2023-02-23T07:57:40;7.10;73.02
68189;DHT22;66299;47.514;19.218;2023-02-23T08:00:10;7.15;72.54
68189;DHT22;66299;47.514;19.218;2023-02-23T08:02:41;7.28;71.69
68189;DHT22;66299;47.514;19.218;2023-02-23T08:05:12;7.24;71.00
68189;DHT22;66299;47.514;19.218;2023-02-23T08:07:44;7.45;72.21
68189;DHT22;66299;47.514;19.218;2023-02-23T08:10:15;7.58;71.29
68189;DHT22;66299;47.514;19.218;2023-02-23T08:12:44;7.61;69.94
68189;DHT22;66299;47.514;19.218;2023-02-23T08:15:13;7.62;70.15
68189;DHT22;66299;47.514;19.218;2023-02-23T08:17:41;7.63;69.94
68189;DHT22;66299;47.514;19.218;2023-02-23T08:20:10;7.65;69.82
68189;DHT22;66299;47.514;19.218;2023-02-23T08:22:39;7.62;69.36
68189;DHT22;66299;47.514;19.218;2023-02-23T08:25:18;7.73;69.61
68189;DHT22;66299;47.514;19.218;2023-02-23T08:27:47;7.76;69.31
68189;DHT22;66299;47.514;19.218;2023-02-23T08:30:18;7.69;68.87
68189;DHT22;66299;47.514;19.218;2023-02-23T08:32:48;7.96;69.88
68189;DHT22;66299;47.514;19.218;2023-02-23T08:35:17;8.04;68.64
68189;DHT22;66299;47.514;19.218;2023-02-23T08:37:46;7.97;68.49
68189;DHT22;66299;47.514;19.218;2023-02-23T08:40:17;7.97;69.66
68189;DHT22;66299;47.514;19.218;2023-02-23T08:42:47;8.14;68.93
68189;DHT22;66299;47.514;19.218;2023-02-23T08:45:18;8.24;67.97
68189;DHT22;66299;47.514;19.218;2023-02-23T08:47:48;8.24;67.80
68189;DHT22;66299;47.514;19.218;2023-02-23T08:50:18;8.19;67.16
68189;DHT22;66299;47.514;19.218;2023-02-23T08:52:46;8.26;67.37
68189;DHT22;66299;47.514;19.218;2023-02-23T08:55:19;8.19;66.83
68189;DHT22;66299;47.514;19.218;2023-02-23T08:57:48;8.37;66.75
68189;DHT22;66299;47.514;19.218;2023-02-23T09:00:17;8.27;66.83
68189;DHT22;66299;47.514;19.218;2023-02-23T09:02:46;8.33;66.44
68189;DHT22;66299;47.514;19.218;2023-02-23T09:05:16;8.34;66.56
68189;DHT22;66299;47.514;19.218;2023-02-23T09:07:47;8.24;66.31
68189;DHT22;66299;47.514;19.218;2023-02-23T09:10:19;8.23;66.81
68189;DHT22;66299;47.514;19.218;2023-02-23T09:12:51;8.33;66.78
68189;DHT22;66299;47.514;19.218;2023-02-23T09:15:20;8.36;66.54
68189;DHT22;66299;47.514;19.218;2023-02-23T09:17:50;8.31;66.48
68189;DHT22;66299;47.514;19.218;2023-02-23T09:20:21;8.40;66.87
68189;DHT22;66299;47.514;19.218;2023-02-23T09:22:53;8.54;65.85
68189;DHT22;66299;47.514;19.218;2023-02-23T09:25:28;8.54;66.58
68189;DHT22;66299;47.514;19.218;2023-02-23T09:27:57;8.62;65.59
68189;DHT22;66299;47.514;19.218;2023-02-23T09:30:28;8.67;65.04
68189;DHT22;66299;47.514;19.218;2023-02-23T09:32:57;8.79;65.12
68189;DHT22;66299;47.514;19.218;2023-02-23T09:35:28;8.85;65.73
68189;DHT22;66299;47.514;19.218;2023-02-23T09:37:57;8.93;65.31
68189;DHT22;66299;47.514;19.218;2023-02-23T09:40:35;9.06;65.85
68189;DHT22;66299;47.514;19.218;2023-02-23T09:43:11;9.27;65.49
68189;DHT22;66299;47.514;19.218;2023-02-23T09:45:45;9.40;63.74
68189;DHT22;66299;47.514;19.218;2023-02-23T09:48:24;9.27;64.00
68189;DHT22;66299;47.514;19.218;2023-02-23T09:50:57;9.26;63.73
68189;DHT22;66299;47.514;19.218;2023-02-23T09:53:35;9.40;63.63
68189;DHT22;66299;47.514;19.218;2023-02-23T09:56:13;9.50;64.16
68189;DHT22;66299;47.514;19.218;2023-02-23T09:58:48;9.36;63.72
68189;DHT22;66299;47.514;19.218;2023-02-23T10:01:32;9.58;64.01
68189;DHT22;66299;47.514;19.218;2023-02-23T10:04:09;9.44;63.96
68189;DHT22;66299;47.514;19.218;2023-02-23T10:06:49;9.59;63.69
68189;DHT22;66299;47.514;19.218;2023-02-23T10:09:25;9.31;63.57
68189;DHT22;66299;47.514;19.218;2023-02-23T10:12:01;9.51;65.05
68189;DHT22;66299;47.514;19.218;2023-02-23T10:14:53;9.41;63.47
68189;DHT22;66299;47.514;19.218;2023-02-23T10:17:33;9.58;63.62
68189;DHT22;66299;47.514;19.218;2023-02-23T10:20:15;9.74;63.19
68189;DHT22;66299;47.514;19.218;2023-02-23T10:22:49;9.77;62.63
68189;DHT22;66299;47.514;19.218;2023-02-23T10:25:22;9.73;63.53
68189;DHT22;66299;47.514;19.218;2023-02-23T10:27:55;9.70;63.71
68189;DHT22;66299;47.514;19.218;2023-02-23T10:30:26;9.84;63.07
68189;DHT22;66299;47.514;19.218;2023-02-23T10:33:02;9.55;62.53
68189;DHT22;66299;47.514;19.218;2023-02-23T10:35:32;9.96;62.74
68189;DHT22;66299;47.514;19.218;2023-02-23T10:38:01;9.68;61.64
68189;DHT22;66299;47.514;19.218;2023-02-23T10:40:31;9.71;61.48
68189;DHT22;66299;47.514;19.218;2023-02-23T10:43:02;9.88;61.84
68189;DHT22;66299;47.514;19.218;2023-02-23T10:45:37;9.86;62.36
68189;DHT22;66299;47.514;19.218;2023-02-23T10:48:16;9.88;61.41
68189;DHT22;66299;47.514;19.218;2023-02-23T10:50:48;10.03;61.29
68189;DHT22;66299;47.514;19.218;2023-02-23T10:53:21;10.33;61.72
68189;DHT22;66299;47.514;19.218;2023-02-23T10:56:10;9.95;61.15
68189;DHT22;66299;47.514;19.218;2023-02-23T10:58:43;10.16;62.00
68189;DHT22;66299;47.514;19.218;2023-02-23T11:01:14;10.12;61.36
68189;DHT22;66299;47.514;19.218;2023-02-23T11:03:47;10.33;61.49
68189;DHT22;66299;47.514;19.218;2023-02-23T11:06:28;10.25;60.84
68189;DHT22;66299;47.514;19.218;2023-02-23T11:08:58;10.23;60.88
68189;DHT22;66299;47.514;19.218;2023-02-23T11:11:54;10.16;62.08
68189;DHT22;66299;47.514;19.218;2023-02-23T11:14:26;10.29;60.78
68189;DHT22;66299;47.514;19.218;2023-02-23T11:16:56;10.43;60.45
68189;DHT22;66299;47.514;19.218;2023-02-23T11:19:31;10.28;60.26
68189;DHT22;66299;47.514;19.218;2023-02-23T11:22:01;10.23;61.05
68189;DHT22;66299;47.514;19.218;2023-02-23T11:24:35;10.34;61.11
68189;DHT22;66299;47.514;19.218;2023-02-23T11:27:05;10.37;61.01
68189;DHT22;66299;47.514;19.218;2023-02-23T11:29:38;10.34;60.86
68189;DHT22;66299;47.514;19.218;2023-02-23T11:32:13;10.29;61.56
68189;DHT22;66299;47.514;19.218;2023-02-23T11:34:48;10.50;61.49
68189;DHT22;66299;47.514;19.218;2023-02-23T11:37:37;10.54;61.11
68189;DHT22;66299;47.514;19.218;2023-02-23T11:40:19;10.39;60.88
68189;DHT22;66299;47.514;19.218;2023-02-23T11:42:53;10.60;61.18
68189;DHT22;66299;47.514;19.218;2023-02-23T11:45:25;10.40;61.09
68189;DHT22;66299;47.514;19.218;2023-02-23T11:48:01;10.50;61.04
68189;DHT22;66299;47.514;19.218;2023-02-23T11:50:34;10.61;60.79
68189;DHT22;66299;47.514;19.218;2023-02-23T11:53:06;10.71;60.54
68189;DHT22;66299;47.514;19.218;2023-02-23T11:55:45;10.57;61.38
68189;DHT22;66299;47.514;19.218;2023-02-23T11:58:22;10.57;61.63
68189;DHT22;66299;47.514;19.218;2023-02-23T12:00:58;10.32;61.67
68189;DHT22;66299;47.514;19.218;2023-02-23T12:03:29;10.40;61.63
68189;DHT22;66299;47.514;19.218;2023-02-23T12:05:59;10.32;61.46
68189;DHT22;66299;47.514;19.218;2023-02-23T12:08:39;10.53;61.69
68189;DHT22;66299;47.514;19.218;2023-02-23T12:11:12;10.52;61.63
68189;DHT22;66299;47.514;19.218;2023-02-23T12:13:45;10.46;61.74
68189;DHT22;66299;47.514;19.218;2023-02-23T12:16:18;10.46;61.66
68189;DHT22;66299;47.514;19.218;2023-02-23T12:18:53;10.46;62.36
68189;DHT22;66299;47.514;19.218;2023-02-23T12:21:34;10.65;62.05
68189;DHT22;66299;47.514;19.218;2023-02-23T12:24:14;10.65;61.90
68189;DHT22;66299;47.514;19.218;2023-02-23T12:26:50;10.60;61.86
68189;DHT22;66299;47.514;19.218;2023-02-23T12:29:28;10.75;61.68
68189;DHT22;66299;47.514;19.218;2023-02-23T12:32:02;10.53;61.61
68189;DHT22;66299;47.514;19.218;2023-02-23T12:34:38;10.63;62.20
68189;DHT22;66299;47.514;19.218;2023-02-23T12:37:19;10.68;62.47
68189;DHT22;66299;47.514;19.218;2023-02-23T12:39:57;10.42;62.34
68189;DHT22;66299;47.514;19.218;2023-02-23T12:42:38;10.36;61.87
68189;DHT22;66299;47.514;19.218;2023-02-23T12:45:16;10.34;62.72
68189;DHT22;66299;47.514;19.218;2023-02-23T12:47:51;10.52;62.55
68189;DHT22;66299;47.514;19.218;2023-02-23T12:50:26;10.37;62.91
68189;DHT22;66299;47.514;19.218;2023-02-23T12:52:57;10.23;63.62
68189;DHT22;66299;47.514;19.218;2023-02-23T12:55:33;10.36;63.25
68189;DHT22;66299;47.514;19.218;2023-02-23T12:58:15;10.28;64.25
68189;DHT22;66299;47.514;19.218;2023-02-23T13:00:52;10.37;62.94
68189;DHT22;66299;47.514;19.218;2023-02-23T13:03:37;10.22;63.15
68189;DHT22;66299;47.514;19.218;2023-02-23T13:06:11;10.43;63.87
68189;DHT22;66299;47.514;19.218;2023-02-23T13:08:55;10.40;62.91
68189;DHT22;66299;47.514;19.218;2023-02-23T13:11:45;10.36;63.14
68189;DHT22;66299;47.514;19.218;2023-02-23T13:14:21;10.43;63.24
68189;DHT22;66299;47.514;19.218;2023-02-23T13:17:00;10.61;62.52
68189;DHT22;66299;47.514;19.218;2023-02-23T13:19:38;10.77;61.39
68189;DHT22;66299;47.514;19.218;2023-02-23T13:22:27;10.80;62.35
68189;DHT22;66299;47.514;19.218;2023-02-23T13:24:59;11.09;64.04
68189;DHT22;66299;47.514;19.218;2023-02-23T13:27:34;11.08;62.55
68189;DHT22;66299;47.514;19.218;2023-02-23T13:30:08;10.85;62.01
68189;DHT22;66299;47.514;19.218;2023-02-23T13:32:38;10.82;61.47
68189;DHT22;66299;47.514;19.218;2023-02-23T13:35:15;10.91;62.20
68189;DHT22;66299;47.514;19.218;2023-02-23T13:37:48;10.90;62.28
68189;DHT22;66299;47.514;19.218;2023-02-23T13:40:28;10.84;62.26
68189;DHT22;66299;47.514;19.218;2023-02-23T13:43:07;10.80;62.66
68189;DHT22;66299;47.514;19.218;2023-02-23T13:45:51;10.70;62.93
68189;DHT22;66299;47.514;19.218;2023-02-23T13:48:43;10.87;63.51
68189;DHT22;66299;47.514;19.218;2023-02-23T13:51:33;10.95;62.11
68189;DHT22;66299;47.514;19.218;2023-02-23T13:54:17;10.97;62.50
68189;DHT22;66299;47.514;19.218;2023-02-23T13:56:54;10.88;62.65
68189;DHT22;66299;47.514;19.218;2023-02-23T13:59:26;10.95;62.35
68189;DHT22;66299;47.514;19.218;2023-02-23T14:02:04;11.01;62.78
68189;DHT22;66299;47.514;19.218;2023-02-23T14:04:43;11.01;62.54
68189;DHT22;66299;47.514;19.218;2023-02-23T14:07:17;11.02;62.59
68189;DHT22;66299;47.514;19.218;2023-02-23T14:09:52;11.07;63.31
68189;DHT22;66299;47.514;19.218;2023-02-23T14:12:24;11.11;61.59
68189;DHT22;66299;47.514;19.218;2023-02-23T14:14:53;10.98;63.04
68189;DHT22;66299;47.514;19.218;2023-02-23T14:17:53;10.68;63.54
68189;DHT22;66299;47.514;19.218;2023-02-23T14:20:43;10.71;64.28
68189;DHT22;66299;47.514;19.218;2023-02-23T14:23:27;10.60;64.08
68189;DHT22;66299;47.514;19.218;2023-02-23T14:26:15;10.49;64.46
68189;DHT22;66299;47.514;19.218;2023-02-23T14:28:47;10.46;64.71
68189;DHT22;66299;47.514;19.218;2023-02-23T14:31:35;10.46;65.34
68189;DHT22;66299;47.514;19.218;2023-02-23T14:34:06;10.40;65.41
68189;DHT22;66299;47.514;19.218;2023-02-23T14:36:40;10.56;65.17
68189;DHT22;66299;47.514;19.218;2023-02-23T14:39:21;10.53;66.24
68189;DHT22;66299;47.514;19.218;2023-02-23T14:41:53;10.44;66.19
68189;DHT22;66299;47.514;19.218;2023-02-23T14:44:26;10.43;65.25
68189;DHT22;66299;47.514;19.218;2023-02-23T14:47:01;10.40;65.35
68189;DHT22;66299;47.514;19.218;2023-02-23T14:49:38;10.39;65.46
68189;DHT22;66299;47.514;19.218;2023-02-23T14:52:13;10.36;66.28
68189;DHT22;66299;47.514;19.218;2023-02-23T14:54:48;10.44;66.87
68189;DHT22;66299;47.514;19.218;2023-02-23T14:57:19;10.37;66.48
68189;DHT22;66299;47.514;19.218;2023-02-23T14:59:55;10.44;65.76
68189;DHT22;66299;47.514;19.218;2023-02-23T15:02:26;10.50;65.71
68189;DHT22;66299;47.514;19.218;2023-02-23T15:04:57;10.53;65.82
68189;DHT22;66299;47.514;19.218;2023-02-23T15:07:28;10.44;67.05
68189;DHT22;66299;47.514;19.218;2023-02-23T15:10:03;10.44;66.61
68189;DHT22;66299;47.514;19.218;2023-02-23T15:12:35;10.49;66.08
68189;DHT22;66299;47.514;19.218;2023-02-23T15:15:12;10.49;66.51
68189;DHT22;66299;47.514;19.218;2023-02-23T15:17:46;10.43;66.43
68189;DHT22;66299;47.514;19.218;2023-02-23T15:20:23;10.47;66.72
68189;DHT22;66299;47.514;19.218;2023-02-23T15:23:01;10.39;66.99
68189;DHT22;66299;47.514;19.218;2023-02-23T15:25:35;10.36;67.76
68189;DHT22;66299;47.514;19.218;2023-02-23T15:28:21;10.28;67.48
68189;DHT22;66299;47.514;19.218;2023-02-23T15:30:54;10.23;67.49
68189;DHT22;66299;47.514;19.218;2023-02-23T15:33:23;10.15;68.27
68189;DHT22;66299;47.514;19.218;2023-02-23T15:36:06;10.12;68.01
68189;DHT22;66299;47.514;19.218;2023-02-23T15:38:40;10.09;67.63
68189;DHT22;66299;47.514;19.218;2023-02-23T15:41:19;9.98;67.84
68189;DHT22;66299;47.514;19.218;2023-02-23T15:43:51;10.02;68.86
68189;DHT22;66299;47.514;19.218;2023-02-23T15:46:22;9.91;69.05
68189;DHT22;66299;47.514;19.218;2023-02-23T15:48:59;9.94;69.36
68189;DHT22;66299;47.514;19.218;2023-02-23T15:51:34;9.79;68.97
68189;DHT22;66299;47.514;19.218;2023-02-23T15:54:09;9.67;69.79
68189;DHT22;66299;47.514;19.218;2023-02-23T15:56:47;9.59;70.38
68189;DHT22;66299;47.514;19.218;2023-02-23T15:59:20;9.62;70.32
68189;DHT22;66299;47.514;19.218;2023-02-23T16:01:52;9.61;69.92
68189;DHT22;66299;47.514;19.218;2023-02-23T16:04:25;9.59;70.12
68189;DHT22;66299;47.514;19.218;2023-02-23T16:07:07;9.57;70.38
68189;DHT22;66299;47.514;19.218;2023-02-23T16:09:46;9.51;69.77
68189;DHT22;66299;47.514;19.218;2023-02-23T16:12:20;9.51;70.00
68189;DHT22;66299;47.514;19.218;2023-02-23T16:14:52;9.51;69.81
68189;DHT22;66299;47.514;19.218;2023-02-23T16:17:24;9.47;70.14
68189;DHT22;66299;47.514;19.218;2023-02-23T16:20:02;9.38;70.59
68189;DHT22;66299;47.514;19.218;2023-02-23T16:22:38;9.38;70.57
68189;DHT22;66299;47.514;19.218;2023-02-23T16:25:11;9.40;70.61
68189;DHT22;66299;47.514;19.218;2023-02-23T16:27:42;9.36;70.35